createdAt,value
2022-12-16T00:01:42.983Z,97531.81
2022-12-16T00:04:49.496Z,97536.88
2022-12-16T00:07:56.501Z,97540.34
2022-12-16T00:11:07.086Z,97539.41
2022-12-16T00:14:12.479Z,97541.38
2022-12-16T00:17:18.750Z,97549.19
2022-12-16T00:20:24.152Z,97539.78
2022-12-16T00:23:32.247Z,97554.47
2022-12-16T00:26:40.675Z,97554.56
2022-12-16T00:29:46.924Z,97554.47
2022-12-16T00:32:52.324Z,97539.72
2022-12-16T00:36:00.536Z,97532.13
2022-12-16T00:39:06.796Z,97523.56
2022-12-16T00:42:15.767Z,97510.72
2022-12-16T00:45:21.259Z,97522.84
2022-12-16T00:48:27.740Z,97497.56
2022-12-16T00:51:33.080Z,97517.94
2022-12-16T00:54:39.476Z,97515.47
2022-12-16T00:57:48.727Z,97497.38
2022-12-16T01:00:55.273Z,97520.34
2022-12-16T01:04:00.889Z,97511.53
2022-12-16T01:07:07.372Z,97506.25
2022-12-16T01:10:15.267Z,97503.66
2022-12-16T01:13:27.357Z,97501.75
2022-12-16T01:16:32.879Z,97499.97
2022-12-16T01:19:39.182Z,97483.69
2022-12-16T01:22:45.196Z,97469.19
2022-12-16T01:26:01.144Z,97477.84
2022-12-16T01:29:09.498Z,97474.44
2022-12-16T01:32:17.096Z,97465.03
2022-12-16T01:35:51.925Z,97471.16
2022-12-16T01:38:50.460Z,97463.41
2022-12-16T01:41:56.546Z,97462.63
2022-12-16T01:45:33.886Z,97452.31
2022-12-16T01:48:49.938Z,97445.69
2022-12-16T01:52:05.496Z,97424.13
2022-12-16T01:55:21.641Z,97413.06
2022-12-16T01:58:34.929Z,97416.59
2022-12-16T02:01:43.363Z,97410.66
2022-12-16T02:05:01.773Z,97408.25
2022-12-16T02:08:16.507Z,97422.25
2022-12-16T02:11:53.852Z,97411.94
2022-12-16T02:15:31.815Z,97400.88
2022-12-16T02:18:58.486Z,97382.28
2022-12-16T02:22:37.844Z,97385.59
2022-12-16T02:26:32.284Z,97395.19
2022-12-16T02:30:10.389Z,97388.91
2022-12-16T02:33:48.736Z,97375.94
2022-12-16T02:37:16.668Z,97376.63
2022-12-16T02:40:35.995Z,97362.00
2022-12-16T02:43:58.221Z,97362.13
2022-12-16T02:47:04.408Z,97376.03
2022-12-16T02:50:24.493Z,97361.44
2022-12-16T02:53:34.820Z,97351.28
2022-12-16T02:57:05.397Z,97347.16
2022-12-16T03:00:16.669Z,97350.31
2022-12-16T03:03:32.210Z,97363.22
2022-12-16T03:06:50.709Z,97340.84
2022-12-16T03:10:02.420Z,97335.94
2022-12-16T03:13:14.141Z,97337.84
2022-12-16T03:16:27.859Z,97327.47
2022-12-16T03:19:35.187Z,97325.72
2022-12-16T03:22:51.506Z,97323.25
2022-12-16T03:26:10.215Z,97327.81
2022-12-16T03:29:27.849Z,97316.63
2022-12-16T03:32:44.012Z,97306.13
2022-12-16T03:36:01.757Z,97307.69
2022-12-16T03:39:13.427Z,97290.47
2022-12-16T03:42:19.806Z,97294.00
2022-12-16T03:45:33.588Z,97291.69
2022-12-16T03:48:39.277Z,97282.19
2022-12-16T03:51:45.521Z,97286.47
2022-12-16T03:54:53.727Z,97282.09
2022-12-16T03:58:00.213Z,97274.31
2022-12-16T04:01:05.638Z,97275.47
2022-12-16T04:04:12.236Z,97284.25
2022-12-16T04:07:24.975Z,97287.66
2022-12-16T04:10:49.962Z,97275.78
2022-12-16T04:14:10.335Z,97277.44
2022-12-16T04:17:33.228Z,97285.94
2022-12-16T04:21:01.540Z,97272.94
2022-12-16T04:24:24.348Z,97272.78
2022-12-16T04:27:32.687Z,97273.38
2022-12-16T04:30:39.478Z,97270.53
2022-12-16T04:34:00.784Z,97277.31
2022-12-16T04:37:22.759Z,97287.47
2022-12-16T04:40:43.914Z,97283.94
2022-12-16T04:44:13.684Z,97277.00
2022-12-16T04:47:35.150Z,97274.41
2022-12-16T04:50:57.261Z,97289.88
2022-12-16T04:54:18.639Z,97282.91
2022-12-16T04:57:40.769Z,97280.25
2022-12-16T05:01:07.140Z,97269.88
2022-12-16T05:04:29.249Z,97263.00
2022-12-16T05:07:50.363Z,97251.88
2022-12-16T05:11:12.477Z,97264.72
2022-12-16T05:14:33.732Z,97272.19
2022-12-16T05:17:58.216Z,97272.00
2022-12-16T05:21:21.601Z,97268.38
2022-12-16T05:24:46.264Z,97260.72
2022-12-16T05:28:12.361Z,97245.75
2022-12-16T05:31:34.272Z,97251.56
2022-12-16T05:35:03.587Z,97245.50
2022-12-16T05:38:25.346Z,97245.63
2022-12-16T05:41:46.485Z,97240.50
2022-12-16T05:45:08.596Z,97247.34
2022-12-16T05:48:29.607Z,97239.53
2022-12-16T05:51:54.583Z,97249.09
2022-12-16T05:55:16.015Z,97231.13
2022-12-16T05:58:38.641Z,97227.66
2022-12-16T06:01:59.833Z,97230.06
2022-12-16T06:05:21.982Z,97233.59
2022-12-16T06:08:45.637Z,97234.16
2022-12-16T06:12:08.181Z,97245.25
2022-12-16T06:15:30.489Z,97244.28
2022-12-16T06:18:52.572Z,97232.16
2022-12-16T06:22:14.106Z,97216.78
2022-12-16T06:25:38.600Z,97219.44
2022-12-16T06:28:59.865Z,97227.31
2022-12-16T06:32:27.340Z,97220.31
2022-12-16T06:35:49.070Z,97219.53
2022-12-16T06:39:11.200Z,97228.22
2022-12-16T06:42:35.581Z,97227.22
2022-12-16T06:45:57.770Z,97215.09
2022-12-16T06:49:19.026Z,97220.13
2022-12-16T06:52:40.996Z,97209.16
2022-12-16T06:56:02.368Z,97223.75
2022-12-16T06:59:27.762Z,97225.66
2022-12-16T07:02:49.373Z,97225.53
2022-12-16T07:06:12.010Z,97217.84
2022-12-16T07:09:33.108Z,97205.63
2022-12-16T07:12:55.047Z,97206.34
2022-12-16T07:16:19.182Z,97205.50
2022-12-16T07:19:41.092Z,97191.81
2022-12-16T07:23:09.864Z,97197.16
2022-12-16T07:26:35.086Z,97194.78
2022-12-16T07:29:56.522Z,97196.34
2022-12-16T07:33:20.827Z,97199.75
2022-12-16T07:36:42.067Z,97194.03
2022-12-16T07:40:04.067Z,97189.00
2022-12-16T07:43:24.966Z,97186.41
2022-12-16T07:46:58.775Z,97186.28
2022-12-16T07:50:23.143Z,97186.16
2022-12-16T07:53:46.305Z,97179.31
2022-12-16T07:57:07.647Z,97177.63
2022-12-16T08:00:30.702Z,97190.31
2022-12-16T08:03:51.775Z,97184.38
2022-12-16T08:07:18.175Z,97194.59
2022-12-16T08:10:39.415Z,97191.72
2022-12-16T08:14:01.476Z,97199.09
2022-12-16T08:17:37.366Z,97204.22
2022-12-16T08:20:59.630Z,97217.25
2022-12-16T08:24:23.768Z,97219.63
2022-12-16T08:27:45.948Z,97221.47
2022-12-16T08:31:09.267Z,97225.88
2022-12-16T08:34:31.262Z,97224.41
2022-12-16T08:37:52.354Z,97228.16
2022-12-16T08:41:18.055Z,97222.72
2022-12-16T08:44:39.512Z,97225.16
2022-12-16T08:48:09.614Z,97150.59
2022-12-16T08:51:33.621Z,97247.81
2022-12-16T08:54:55.738Z,97251.66
2022-12-16T08:58:32.083Z,97238.25
2022-12-16T09:01:53.991Z,97243.13
2022-12-16T09:05:16.901Z,97244.63
2022-12-16T09:08:38.845Z,97258.78
2022-12-16T09:11:59.912Z,97243.19
2022-12-16T09:15:25.587Z,97249.56
2022-12-16T09:18:46.609Z,97257.84
2022-12-16T09:22:08.556Z,97262.78
2022-12-16T09:25:30.262Z,97276.97
2022-12-16T09:28:52.796Z,97292.53
2022-12-16T09:32:16.983Z,97296.06
2022-12-16T09:35:38.942Z,97311.03
2022-12-16T09:39:00.169Z,97315.41
2022-12-16T09:42:52.140Z,97313.38
2022-12-16T09:46:37.559Z,97315.97
2022-12-16T09:50:08.868Z,97286.91
2022-12-16T09:53:37.069Z,97292.31
2022-12-16T09:57:01.724Z,97317.81
2022-12-16T10:00:35.968Z,97309.03
2022-12-16T10:04:00.054Z,97317.69
2022-12-16T10:07:35.693Z,97322.88
2022-12-16T10:11:18.517Z,97306.34
2022-12-16T10:14:52.596Z,97303.75
2022-12-16T10:18:18.109Z,97306.94
2022-12-16T10:21:51.382Z,97288.13
2022-12-16T10:25:32.039Z,97313.06
2022-12-16T10:29:05.864Z,97319.78
2022-12-16T10:32:44.114Z,97318.06
2022-12-16T10:36:12.237Z,97314.59
2022-12-16T10:39:48.194Z,97306.66
2022-12-16T10:43:35.618Z,97300.53
2022-12-16T10:46:58.187Z,97316.03
2022-12-16T10:50:19.480Z,97321.09
2022-12-16T10:53:46.574Z,97318.38
2022-12-16T10:57:23.753Z,97299.09
2022-12-16T11:01:04.725Z,97316.03
2022-12-16T11:04:52.248Z,97309.44
2022-12-16T11:08:18.298Z,97294.03
2022-12-16T11:11:45.424Z,97295.00
2022-12-16T11:15:28.603Z,97289.53
2022-12-16T11:18:53.161Z,97287.84
2022-12-16T11:22:31.409Z,97296.13
2022-12-16T11:25:53.305Z,97284.91
2022-12-16T11:29:34.223Z,97295.13
2022-12-16T11:33:01.074Z,97293.97
2022-12-16T11:36:36.840Z,97285.97
2022-12-16T11:39:59.616Z,97278.75
2022-12-16T11:43:25.116Z,97302.56
2022-12-16T11:46:48.275Z,97324.44
2022-12-16T11:50:13.760Z,97337.81
2022-12-16T11:53:52.949Z,97343.94
2022-12-16T11:57:21.858Z,97344.91
2022-12-16T12:00:42.820Z,97331.31
2022-12-16T12:04:09.924Z,97322.22
2022-12-16T12:07:55.584Z,97331.66
2022-12-16T12:11:37.462Z,97337.56
2022-12-16T12:15:11.943Z,97351.41
2022-12-16T12:18:52.992Z,97346.94
2022-12-16T12:22:28.123Z,97368.00
2022-12-16T12:26:04.200Z,97366.78
2022-12-16T12:29:42.332Z,97382.50
2022-12-16T12:33:31.779Z,97387.09
2022-12-16T12:37:05.612Z,97371.03
2022-12-16T12:40:46.681Z,97317.97
2022-12-16T12:44:36.469Z,97382.50
2022-12-16T12:48:23.651Z,97390.31
2022-12-16T12:51:56.469Z,97386.13
2022-12-16T12:55:50.582Z,97387.88
2022-12-16T12:59:32.340Z,97386.09
2022-12-16T13:03:11.543Z,97391.28
2022-12-16T13:06:35.001Z,97400.69
2022-12-16T13:09:58.414Z,97397.16
2022-12-16T13:13:48.662Z,97411.94
2022-12-16T13:17:25.243Z,97413.59
2022-12-16T13:21:03.246Z,97421.06
2022-12-16T13:24:54.784Z,97418.66
2022-12-16T13:28:16.170Z,97427.31
2022-12-16T13:31:40.014Z,97430.06
2022-12-16T13:35:01.759Z,97433.78
2022-12-16T13:38:39.799Z,97427.16
2022-12-16T13:42:17.449Z,97441.56
2022-12-16T13:46:00.243Z,97462.13
2022-12-16T13:50:03.230Z,97456.75
2022-12-16T13:53:31.700Z,97463.47
2022-12-16T13:57:00.229Z,97468.78
2022-12-16T14:00:36.755Z,97485.06
2022-12-16T14:04:05.967Z,97487.56
2022-12-16T14:07:29.025Z,97495.13
2022-12-16T14:10:58.312Z,97498.69
2022-12-16T14:14:32.946Z,97515.06
2022-12-16T14:18:23.603Z,97511.91
2022-12-16T14:22:00.805Z,97503.63
2022-12-16T14:25:31.505Z,97470.16
2022-12-16T14:28:59.100Z,97494.72
2022-12-16T14:32:20.381Z,97499.25
2022-12-16T14:35:46.577Z,97496.97
2022-12-16T14:39:08.749Z,97506.41
2022-12-16T14:42:41.476Z,97486.28
2022-12-16T14:46:09.530Z,97504.94
2022-12-16T14:49:43.251Z,97516.94
2022-12-16T14:53:04.583Z,97528.97
2022-12-16T14:56:38.018Z,97537.50
2022-12-16T14:59:59.365Z,97545.25
2022-12-16T15:03:38.307Z,97554.69
2022-12-16T15:07:05.422Z,97565.72
2022-12-16T15:10:34.012Z,97569.09
2022-12-16T15:14:01.767Z,97577.78
2022-12-16T15:17:35.894Z,97585.56
2022-12-16T15:21:10.171Z,97587.50
2022-12-16T15:24:39.671Z,97592.91
2022-12-16T15:28:00.854Z,97595.53
2022-12-16T15:31:33.885Z,97601.63
2022-12-16T15:35:05.771Z,97613.81
2022-12-16T15:38:46.586Z,97627.56
2022-12-16T15:42:10.075Z,97629.84
2022-12-16T15:45:42.855Z,97630.63
2022-12-16T15:49:11.352Z,97639.38
2022-12-16T15:52:55.238Z,97640.31
2022-12-16T15:56:19.490Z,97643.84
2022-12-16T15:59:49.073Z,97647.28
2022-12-16T16:03:10.516Z,97646.25
2022-12-16T16:06:40.563Z,97653.06
2022-12-16T16:10:02.099Z,97662.44
2022-12-16T16:13:28.512Z,97662.38
2022-12-16T16:16:50.073Z,97669.47
2022-12-16T16:20:12.224Z,97678.91
2022-12-16T16:23:34.145Z,97665.28
2022-12-16T16:26:56.644Z,97668.75
2022-12-16T16:30:29.165Z,97663.00
2022-12-16T16:33:56.147Z,97675.91
2022-12-16T16:37:18.099Z,97648.13
2022-12-16T16:40:52.664Z,97691.56
2022-12-16T16:44:11.924Z,97693.25
2022-12-16T16:47:39.998Z,97701.97
2022-12-16T16:51:00.993Z,97708.75
2022-12-16T16:54:23.055Z,97706.19
2022-12-16T16:57:50.619Z,97707.13
2022-12-16T17:01:12.945Z,97714.94
2022-12-16T17:04:36.872Z,97720.97
2022-12-16T17:07:58.737Z,97724.41
2022-12-16T17:11:20.414Z,97726.97
2022-12-16T17:14:42.404Z,97738.00
2022-12-16T17:18:03.504Z,97741.41
2022-12-16T17:21:29.035Z,97741.41
2022-12-16T17:24:53.922Z,97754.38
2022-12-16T17:28:16.631Z,97762.19
2022-12-16T17:31:37.736Z,97777.69
2022-12-16T17:34:59.672Z,97781.09
2022-12-16T17:38:23.659Z,97779.41
2022-12-16T17:41:48.298Z,97789.00
2022-12-16T17:45:09.343Z,97793.50
2022-12-16T17:48:32.693Z,97790.22
2022-12-16T17:51:53.918Z,97793.00
2022-12-16T17:55:18.451Z,97787.19
2022-12-16T17:58:39.701Z,97795.19
2022-12-16T18:02:02.247Z,97815.03
2022-12-16T18:05:24.046Z,97815.09
2022-12-16T18:08:46.160Z,97804.06
2022-12-16T18:12:10.376Z,97803.25
2022-12-16T18:15:32.415Z,97818.72
2022-12-16T18:18:54.427Z,97814.50
2022-12-16T18:22:16.492Z,97811.06
2022-12-16T18:25:37.572Z,97815.38
2022-12-16T18:29:02.840Z,97817.19
2022-12-16T18:32:24.633Z,97826.75
2022-12-16T18:35:58.260Z,97812.09
2022-12-16T18:39:19.073Z,97822.63
2022-12-16T18:42:40.985Z,97828.69
2022-12-16T18:46:13.964Z,97814.28
2022-12-16T18:49:36.339Z,97829.84
2022-12-16T18:52:57.721Z,97830.53
2022-12-16T18:56:21.321Z,97836.41
2022-12-16T18:59:42.636Z,97838.16
2022-12-16T19:03:07.452Z,97841.72
2022-12-16T19:06:29.252Z,97852.03
2022-12-16T19:09:51.245Z,97868.41
2022-12-16T19:13:14.982Z,97873.44
2022-12-16T19:16:37.218Z,97875.31
2022-12-16T19:20:01.340Z,97866.69
2022-12-16T19:23:23.259Z,97867.44
2022-12-16T19:26:44.692Z,97870.75
2022-12-16T19:30:06.913Z,97879.41
2022-12-16T19:33:27.976Z,97877.78
2022-12-16T19:36:53.743Z,97875.28
2022-12-16T19:40:14.916Z,97898.53
2022-12-16T19:43:37.224Z,97900.13
2022-12-16T19:46:58.297Z,97900.88
2022-12-16T19:50:21.179Z,97906.75
2022-12-16T19:53:45.373Z,97914.25
2022-12-16T19:57:07.733Z,97917.53
2022-12-16T20:00:31.085Z,97919.97
2022-12-16T20:03:54.029Z,97934.59
2022-12-16T20:07:23.053Z,97933.81
2022-12-16T20:10:48.213Z,97933.59
2022-12-16T20:14:13.172Z,97930.06
2022-12-16T20:17:35.224Z,97930.72
2022-12-16T20:20:56.285Z,97941.97
2022-12-16T20:24:18.309Z,97949.00
2022-12-16T20:27:42.820Z,97943.94
2022-12-16T20:31:04.952Z,97945.69
2022-12-16T20:34:28.347Z,97938.97
2022-12-16T20:37:51.687Z,97953.75
2022-12-16T20:41:17.403Z,97956.56
2022-12-16T20:44:42.513Z,97953.06
2022-12-16T20:48:03.821Z,97962.69
2022-12-16T20:51:40.416Z,97962.81
2022-12-16T20:55:01.782Z,97968.88
2022-12-16T20:58:24.069Z,97978.28
2022-12-16T21:02:21.244Z,97986.16
2022-12-16T21:05:30.529Z,97998.25
2022-12-16T21:09:04.108Z,98009.53
2022-12-16T21:12:26.468Z,98007.06
2022-12-16T21:15:47.737Z,97998.44
2022-12-16T21:19:12.902Z,98002.75
2022-12-16T21:22:33.449Z,98014.75
2022-12-16T21:25:58.619Z,98016.63
2022-12-16T21:29:19.699Z,98018.31
2022-12-16T21:32:44.494Z,98006.31
2022-12-16T21:36:13.810Z,98024.63
2022-12-16T21:39:50.455Z,98031.66
2022-12-16T21:43:11.758Z,98023.16
2022-12-16T21:46:33.544Z,98018.81
2022-12-16T21:49:56.183Z,98012.97
2022-12-16T21:53:20.996Z,98011.25
2022-12-16T21:56:42.714Z,98025.06
2022-12-16T22:00:04.662Z,98029.50
2022-12-16T22:03:32.026Z,98040.63
2022-12-16T22:06:54.025Z,98043.97
2022-12-16T22:10:19.133Z,98037.13
2022-12-16T22:13:41.660Z,98038.88
2022-12-16T22:17:05.788Z,98050.81
2022-12-16T22:20:29.142Z,98049.09
2022-12-16T22:23:50.384Z,98043.97
2022-12-16T22:27:16.070Z,98066.38
2022-12-16T22:30:37.141Z,98056.16
2022-12-16T22:33:59.102Z,98057.09
2022-12-16T22:37:20.311Z,98050.31
2022-12-16T22:40:42.417Z,98050.41
2022-12-16T22:44:06.494Z,98051.31
2022-12-16T22:47:28.529Z,98058.19
2022-12-16T22:50:51.215Z,98055.56
2022-12-16T22:54:13.724Z,98065.84
2022-12-16T22:57:34.918Z,98059.75
2022-12-16T23:01:12.078Z,98068.22
2022-12-16T23:04:33.581Z,98061.22
2022-12-16T23:07:55.737Z,98059.41
2022-12-16T23:11:33.645Z,98057.59
2022-12-16T23:14:56.658Z,98053.34
2022-12-16T23:18:20.773Z,98058.50
2022-12-16T23:21:42.821Z,98067.13
2022-12-16T23:25:03.599Z,98075.75
2022-12-16T23:28:25.662Z,98064.75
2022-12-16T23:31:46.777Z,98064.75
2022-12-16T23:35:11.640Z,98071.66
2022-12-16T23:38:32.770Z,98065.72
2022-12-16T23:41:54.861Z,98072.56
2022-12-16T23:45:17.628Z,98076.88
2022-12-16T23:48:39.574Z,98085.41
2022-12-16T23:52:03.572Z,98082.75
2022-12-16T23:55:26.523Z,98091.34
2022-12-16T23:58:47.513Z,98099.19
